createdAt,value
2022-11-18T00:01:15.091Z,11.20
2022-11-18T00:03:42.818Z,9.43
2022-11-18T00:06:16.383Z,11.57
2022-11-18T00:08:43.900Z,9.57
2022-11-18T00:11:37.770Z,11.33
2022-11-18T00:14:18.931Z,10.13
2022-11-18T00:16:56.000Z,11.00
2022-11-18T00:19:27.445Z,10.47
2022-11-18T00:21:55.329Z,11.13
2022-11-18T00:24:23.173Z,10.53
2022-11-18T00:26:50.550Z,9.90
2022-11-18T00:29:18.331Z,10.73
2022-11-18T00:31:45.866Z,10.17
2022-11-18T00:34:16.716Z,10.90
2022-11-18T00:36:45.720Z,11.37
2022-11-18T00:39:16.409Z,11.17
2022-11-18T00:42:02.841Z,9.40
2022-11-18T00:44:30.595Z,11.20
2022-11-18T00:46:58.063Z,11.03
2022-11-18T00:49:25.467Z,10.70
2022-11-18T00:51:52.587Z,10.30
2022-11-18T00:54:20.015Z,10.50
2022-11-18T00:56:47.189Z,10.70
2022-11-18T00:59:14.239Z,11.20
2022-11-18T01:01:41.437Z,10.43
2022-11-18T01:04:09.082Z,10.73
2022-11-18T01:06:36.342Z,10.37
2022-11-18T01:09:04.098Z,10.57
2022-11-18T01:11:50.139Z,12.30
2022-11-18T01:14:18.080Z,12.00
2022-11-18T01:16:51.152Z,10.27
2022-11-18T01:19:19.484Z,10.43
2022-11-18T01:21:47.420Z,11.60
2022-11-18T01:24:14.779Z,11.20
2022-11-18T01:26:42.137Z,10.60
2022-11-18T01:29:09.797Z,11.37
2022-11-18T01:31:50.158Z,11.10
2022-11-18T01:34:29.326Z,10.03
2022-11-18T01:36:58.029Z,11.37
2022-11-18T01:39:25.547Z,12.13
2022-11-18T01:41:52.752Z,9.93
2022-11-18T01:44:58.804Z,11.23
2022-11-18T01:47:30.088Z,8.80
2022-11-18T01:49:59.406Z,9.93
2022-11-18T01:52:27.375Z,11.20
2022-11-18T01:54:59.821Z,11.30
2022-11-18T01:57:29.530Z,10.43
2022-11-18T01:59:59.550Z,11.87
2022-11-18T02:02:28.263Z,10.80
2022-11-18T02:04:56.839Z,10.60
2022-11-18T02:07:25.479Z,9.93
2022-11-18T02:09:54.064Z,9.90
2022-11-18T02:12:21.575Z,10.33
2022-11-18T02:14:50.931Z,10.50
2022-11-18T02:17:45.743Z,10.47
2022-11-18T02:20:44.439Z,11.07
2022-11-18T02:24:13.859Z,11.87
2022-11-18T02:26:54.425Z,11.77
2022-11-18T02:29:31.568Z,10.53
2022-11-18T02:32:07.158Z,10.67
2022-11-18T02:35:01.102Z,10.47
2022-11-18T02:37:34.168Z,11.53
2022-11-18T02:40:23.559Z,11.33
2022-11-18T02:43:13.398Z,11.13
2022-11-18T02:45:47.300Z,13.37
2022-11-18T02:48:16.169Z,11.50
2022-11-18T02:50:47.035Z,13.63
2022-11-18T02:53:20.010Z,11.00
2022-11-18T02:55:48.581Z,9.93
2022-11-18T02:58:19.246Z,12.53
2022-11-18T03:00:57.896Z,11.87
2022-11-18T03:03:36.491Z,13.07
2022-11-18T03:06:25.431Z,12.50
2022-11-18T03:09:17.596Z,11.80
2022-11-18T03:12:15.906Z,11.03
2022-11-18T03:15:02.044Z,10.93
2022-11-18T03:17:51.756Z,10.50
2022-11-18T03:20:22.060Z,10.70
2022-11-18T03:23:08.447Z,11.57
2022-11-18T03:25:58.138Z,9.93
2022-11-18T03:28:30.456Z,10.90
2022-11-18T03:31:21.654Z,10.00
2022-11-18T03:33:58.594Z,11.03
2022-11-18T03:36:30.420Z,11.87
2022-11-18T03:39:01.683Z,11.30
2022-11-18T03:41:33.129Z,12.57
2022-11-18T03:44:10.824Z,11.53
2022-11-18T03:47:14.963Z,13.77
2022-11-18T03:50:00.734Z,11.90
2022-11-18T03:52:33.763Z,11.43
2022-11-18T03:55:10.070Z,12.53
2022-11-18T03:58:10.087Z,11.27
2022-11-18T04:00:43.826Z,10.80
2022-11-18T04:03:12.382Z,12.10
2022-11-18T04:05:42.143Z,12.23
2022-11-18T04:08:36.317Z,12.00
2022-11-18T04:11:38.133Z,12.70
2022-11-18T04:14:07.860Z,11.63
2022-11-18T04:16:45.156Z,11.63
2022-11-18T04:19:12.485Z,11.97
2022-11-18T04:21:39.787Z,13.50
2022-11-18T04:24:07.360Z,11.77
2022-11-18T04:26:34.485Z,12.97
2022-11-18T04:29:01.666Z,13.63
2022-11-18T04:31:28.962Z,12.90
2022-11-18T04:33:56.087Z,13.37
2022-11-18T04:36:23.484Z,13.50
2022-11-18T04:38:50.542Z,13.10
2022-11-18T04:41:17.638Z,14.87
2022-11-18T04:43:44.960Z,13.67
2022-11-18T04:46:12.059Z,12.30
2022-11-18T04:48:39.354Z,13.67
2022-11-18T04:51:06.855Z,13.40
2022-11-18T04:53:34.009Z,13.27
2022-11-18T04:56:07.921Z,12.33
2022-11-18T04:58:35.082Z,12.80
2022-11-18T05:01:02.577Z,12.40
2022-11-18T05:03:29.897Z,12.90
2022-11-18T05:06:01.682Z,11.60
2022-11-18T05:08:28.827Z,13.93
2022-11-18T05:11:16.009Z,14.67
2022-11-18T05:13:43.316Z,13.70
2022-11-18T05:16:10.417Z,12.37
2022-11-18T05:18:37.593Z,13.03
2022-11-18T05:21:08.092Z,15.23
2022-11-18T05:23:35.190Z,13.93
2022-11-18T05:26:11.235Z,14.80
2022-11-18T05:28:38.918Z,13.23
2022-11-18T05:31:16.385Z,14.03
2022-11-18T05:33:44.480Z,14.37
2022-11-18T05:36:15.303Z,12.73
2022-11-18T05:38:43.501Z,14.43
2022-11-18T05:41:31.762Z,12.80
2022-11-18T05:43:59.343Z,15.63
2022-11-18T05:46:27.158Z,13.17
2022-11-18T05:48:54.376Z,12.57
2022-11-18T05:51:22.026Z,14.10
2022-11-18T05:53:51.684Z,14.47
2022-11-18T05:56:40.360Z,12.73
2022-11-18T05:59:07.961Z,12.20
2022-11-18T06:01:53.992Z,13.67
2022-11-18T06:04:26.531Z,12.37
2022-11-18T06:06:59.719Z,12.13
2022-11-18T06:09:31.414Z,15.23
2022-11-18T06:12:02.086Z,13.73
2022-11-18T06:14:43.148Z,14.73
2022-11-18T06:17:17.485Z,13.07
2022-11-18T06:19:44.905Z,13.03
2022-11-18T06:22:12.615Z,13.20
2022-11-18T06:24:40.665Z,12.97
2022-11-18T06:27:07.786Z,14.93
2022-11-18T06:29:35.128Z,14.00
2022-11-18T06:32:02.336Z,13.97
2022-11-18T06:34:29.553Z,13.07
2022-11-18T06:36:56.791Z,14.30
2022-11-18T06:39:24.142Z,14.67
2022-11-18T06:41:54.210Z,15.47
2022-11-18T06:44:21.418Z,13.80
2022-11-18T06:46:57.487Z,13.07
2022-11-18T06:49:26.725Z,13.40
2022-11-18T06:51:55.068Z,13.37
2022-11-18T06:54:22.318Z,12.87
2022-11-18T06:56:49.552Z,15.47
2022-11-18T06:59:23.660Z,14.60
2022-11-18T07:01:53.315Z,14.30
2022-11-18T07:04:21.040Z,13.60
2022-11-18T07:06:48.397Z,15.97
2022-11-18T07:09:16.092Z,15.23
2022-11-18T07:11:43.393Z,13.17
2022-11-18T07:14:10.763Z,13.00
2022-11-18T07:16:38.446Z,13.23
2022-11-18T07:19:13.843Z,13.17
2022-11-18T07:21:42.774Z,12.37
2022-11-18T07:24:14.663Z,13.03
2022-11-18T07:26:42.576Z,13.37
2022-11-18T07:29:10.038Z,13.07
2022-11-18T07:31:39.613Z,13.40
2022-11-18T07:34:08.121Z,12.50
2022-11-18T07:36:36.173Z,11.83
2022-11-18T07:39:07.467Z,12.03
2022-11-18T07:41:35.643Z,11.77
2022-11-18T07:44:04.588Z,10.83
2022-11-18T07:46:37.285Z,9.37
2022-11-18T07:49:08.681Z,9.70
2022-11-18T07:51:39.291Z,10.10
2022-11-18T07:54:09.627Z,8.67
2022-11-18T07:56:38.120Z,7.93
2022-11-18T07:59:06.024Z,8.77
2022-11-18T08:01:33.404Z,7.33
2022-11-18T08:04:12.409Z,7.23
2022-11-18T08:06:40.675Z,6.37
2022-11-18T08:09:08.745Z,6.47
2022-11-18T08:11:36.324Z,6.70
2022-11-18T08:14:04.336Z,6.50
2022-11-18T08:16:31.533Z,6.43
2022-11-18T08:19:00.610Z,5.90
2022-11-18T08:21:27.938Z,5.53
2022-11-18T08:23:57.699Z,5.03
2022-11-18T08:26:27.196Z,4.80
2022-11-18T08:28:54.704Z,5.10
2022-11-18T08:31:27.662Z,5.20
2022-11-18T08:34:01.581Z,4.23
2022-11-18T08:36:32.566Z,4.57
2022-11-18T08:39:02.963Z,4.47
2022-11-18T08:41:38.305Z,4.33
2022-11-18T08:44:07.557Z,3.53
2022-11-18T08:46:34.750Z,3.80
2022-11-18T08:49:02.022Z,3.87
2022-11-18T08:51:29.343Z,4.10
2022-11-18T08:53:57.753Z,4.43
2022-11-18T08:56:25.536Z,4.00
2022-11-18T08:58:54.403Z,4.13
2022-11-18T09:01:21.974Z,3.57
2022-11-18T09:03:49.680Z,3.73
2022-11-18T09:06:20.578Z,4.20
2022-11-18T09:08:48.345Z,4.23
2022-11-18T09:11:19.972Z,3.97
2022-11-18T09:16:35.883Z,4.10
2022-11-18T09:19:31.543Z,4.20
2022-11-18T09:21:51.419Z,4.20
2022-11-18T09:24:19.601Z,3.87
2022-11-18T09:26:50.249Z,4.40
2022-11-18T09:29:17.601Z,4.10
2022-11-18T09:31:45.964Z,3.63
2022-11-18T09:34:13.498Z,4.30
2022-11-18T09:36:40.688Z,4.00
2022-11-18T09:39:08.357Z,3.90
2022-11-18T09:42:00.806Z,3.80
2022-11-18T09:44:55.195Z,75.00
2022-11-18T09:47:35.876Z,4.40
2022-11-18T09:50:48.559Z,3.90
2022-11-18T09:53:21.049Z,4.20
2022-11-18T09:55:50.886Z,3.67
2022-11-18T09:58:33.917Z,3.70
2022-11-18T10:01:03.155Z,3.80
2022-11-18T10:03:33.137Z,3.87
2022-11-18T10:06:09.994Z,3.63
2022-11-18T10:08:58.471Z,3.53
2022-11-18T10:11:57.502Z,3.20
2022-11-18T10:14:49.588Z,3.20
2022-11-18T10:17:52.747Z,3.57
2022-11-18T10:21:19.950Z,2.50
2022-11-18T10:23:59.712Z,2.73
2022-11-18T10:26:39.203Z,2.67
2022-11-18T10:29:11.003Z,2.67
2022-11-18T10:31:43.300Z,3.00
2022-11-18T10:34:13.295Z,2.60
2022-11-18T10:36:40.708Z,2.40
2022-11-18T10:39:14.629Z,2.77
2022-11-18T10:41:52.202Z,2.50
2022-11-18T10:44:40.248Z,2.37
2022-11-18T10:47:31.642Z,2.10
2022-11-18T10:50:03.303Z,2.33
2022-11-18T10:52:31.075Z,2.40
2022-11-18T10:55:12.378Z,2.73
2022-11-18T10:57:43.650Z,2.40
2022-11-18T11:00:35.732Z,2.50
2022-11-18T11:03:25.035Z,2.40
2022-11-18T11:06:39.914Z,2.30
2022-11-18T11:09:15.812Z,2.50
2022-11-18T11:12:08.461Z,2.37
2022-11-18T11:14:57.576Z,2.60
2022-11-18T11:17:41.851Z,2.07
2022-11-18T11:20:23.814Z,2.30
2022-11-18T11:22:50.914Z,2.03
2022-11-18T11:29:08.102Z,2.00
2022-11-18T11:31:59.408Z,1.90
2022-11-18T11:34:47.000Z,2.10
2022-11-18T11:38:00.660Z,6.57
2022-11-18T11:40:40.478Z,1.87
2022-11-18T11:43:24.510Z,2.03
2022-11-18T11:46:07.081Z,1.90
2022-11-18T11:48:58.503Z,2.37
2022-11-18T11:51:41.419Z,2.00
2022-11-18T11:55:07.588Z,2.17
2022-11-18T11:57:55.299Z,1.80
2022-11-18T12:00:22.653Z,1.80
2022-11-18T12:03:20.162Z,1.80
2022-11-18T12:05:47.624Z,2.00
2022-11-18T12:08:24.699Z,2.30
2022-11-18T12:11:20.332Z,1.53
2022-11-18T12:14:30.374Z,1.70
2022-11-18T12:17:29.190Z,1.57
2022-11-18T12:19:56.741Z,1.87
2022-11-18T12:22:24.260Z,1.50
2022-11-18T12:24:51.849Z,27.77
2022-11-18T12:27:27.190Z,23.47
2022-11-18T12:30:01.735Z,7.50
2022-11-18T12:32:43.340Z,5.27
2022-11-18T12:35:13.520Z,1.80
2022-11-18T12:37:53.340Z,1.73
2022-11-18T12:40:46.065Z,1.40
2022-11-18T12:43:45.670Z,1.67
2022-11-18T12:46:40.149Z,1.50
2022-11-18T12:49:32.053Z,1.50
2022-11-18T12:52:05.407Z,1.40
2022-11-18T12:54:38.775Z,1.50
2022-11-18T12:57:19.365Z,1.50
2022-11-18T12:59:46.760Z,1.30
2022-11-18T13:02:26.553Z,1.30
2022-11-18T13:05:25.910Z,1.53
2022-11-18T13:08:14.591Z,1.33
2022-11-18T13:10:45.343Z,1.17
2022-11-18T13:13:32.521Z,1.40
2022-11-18T13:16:37.837Z,1.60
2022-11-18T13:19:05.516Z,4.00
2022-11-18T13:21:51.343Z,1.33
2022-11-18T13:24:21.768Z,1.60
2022-11-18T13:26:56.545Z,1.33
2022-11-18T13:29:54.269Z,1.33
2022-11-18T13:32:23.352Z,1.33
2022-11-18T13:34:54.181Z,1.30
2022-11-18T13:37:31.099Z,1.23
2022-11-18T13:39:58.682Z,1.50
2022-11-18T13:42:29.405Z,1.40
2022-11-18T13:44:59.566Z,1.57
2022-11-18T13:47:33.621Z,1.37
2022-11-18T13:50:35.528Z,1.53
2022-11-18T13:53:31.778Z,1.73
2022-11-18T13:56:06.345Z,1.60
2022-11-18T13:59:02.749Z,1.70
2022-11-18T14:01:34.096Z,1.40
2022-11-18T14:04:09.631Z,2.03
2022-11-18T14:06:40.295Z,1.87
2022-11-18T14:09:26.524Z,1.53
2022-11-18T14:12:02.290Z,1.60
2022-11-18T14:14:41.960Z,1.60
2022-11-18T14:17:27.259Z,2.20
2022-11-18T14:19:59.702Z,1.87
2022-11-18T14:22:30.890Z,1.70
2022-11-18T14:25:19.989Z,2.50
2022-11-18T14:28:12.382Z,2.80
2022-11-18T14:30:42.393Z,2.77
2022-11-18T14:33:10.959Z,2.07
2022-11-18T14:35:40.045Z,2.23
2022-11-18T14:41:15.321Z,1.80
2022-11-18T14:43:46.271Z,2.53
2022-11-18T14:46:19.593Z,2.00
2022-11-18T14:48:46.996Z,1.60
2022-11-18T14:51:16.249Z,2.30
2022-11-18T14:53:44.771Z,1.83
2022-11-18T14:56:25.300Z,2.10
2022-11-18T14:58:52.650Z,2.10
2022-11-18T15:01:20.355Z,2.20
2022-11-18T15:03:47.570Z,2.00
2022-11-18T15:06:21.420Z,2.43
2022-11-18T15:08:51.886Z,2.00
2022-11-18T15:11:19.246Z,1.87
2022-11-18T15:13:46.729Z,1.47
2022-11-18T15:16:24.171Z,1.80
2022-11-18T15:18:54.893Z,1.87
2022-11-18T15:21:23.522Z,2.00
2022-11-18T15:23:50.884Z,1.97
2022-11-18T15:26:33.492Z,2.00
2022-11-18T15:29:00.643Z,2.00
2022-11-18T15:31:27.854Z,2.00
2022-11-18T15:33:54.953Z,2.03
2022-11-18T15:36:25.416Z,2.30
2022-11-18T15:38:54.649Z,2.10
2022-11-18T15:41:28.087Z,2.20
2022-11-18T15:43:58.465Z,2.00
2022-11-18T15:46:27.892Z,2.20
2022-11-18T15:48:57.527Z,2.10
2022-11-18T15:51:27.158Z,2.53
2022-11-18T15:53:54.846Z,2.20
2022-11-18T15:56:26.503Z,2.20
2022-11-18T15:59:05.589Z,2.17
2022-11-18T16:01:38.751Z,2.30
2022-11-18T16:04:08.363Z,3.07
2022-11-18T16:06:35.937Z,12.83
2022-11-18T16:09:04.763Z,3.13
2022-11-18T16:11:51.110Z,2.20
2022-11-18T16:14:20.456Z,4.00
2022-11-18T16:16:50.922Z,2.33
2022-11-18T16:19:21.244Z,2.37
2022-11-18T16:21:54.749Z,2.43
2022-11-18T16:24:26.165Z,3.67
2022-11-18T16:26:54.622Z,5.50
2022-11-18T16:29:23.640Z,2.50
2022-11-18T16:31:52.636Z,2.67
2022-11-18T16:34:22.704Z,2.70
2022-11-18T16:36:53.185Z,2.23
2022-11-18T16:39:24.951Z,3.57
2022-11-18T16:42:02.139Z,2.70
2022-11-18T16:44:33.725Z,2.07
2022-11-18T16:47:00.860Z,2.47
2022-11-18T16:49:28.378Z,2.30
2022-11-18T16:51:57.101Z,2.10
2022-11-18T16:54:26.905Z,2.77
2022-11-18T16:56:56.384Z,2.30
2022-11-18T16:59:27.204Z,2.30
2022-11-18T17:01:56.762Z,2.37
2022-11-18T17:04:25.639Z,2.30
2022-11-18T17:06:53.916Z,3.00
2022-11-18T17:09:25.527Z,2.80
2022-11-18T17:11:54.783Z,2.83
2022-11-18T17:14:23.319Z,2.20
2022-11-18T17:16:52.198Z,2.43
2022-11-18T17:19:22.678Z,2.50
2022-11-18T17:21:52.044Z,1.90
2022-11-18T17:24:22.636Z,2.67
2022-11-18T17:26:52.161Z,2.43
2022-11-18T17:29:20.479Z,2.63
2022-11-18T17:31:48.357Z,2.60
2022-11-18T17:34:16.482Z,2.37
2022-11-18T17:36:43.993Z,2.27
2022-11-18T17:39:13.217Z,2.67
2022-11-18T17:41:59.174Z,2.27
2022-11-18T17:44:27.708Z,2.80
2022-11-18T17:46:55.037Z,2.50
2022-11-18T17:49:22.489Z,2.37
2022-11-18T17:51:51.247Z,2.50
2022-11-18T17:54:19.874Z,2.37
2022-11-18T17:56:47.935Z,3.00
2022-11-18T17:59:17.256Z,2.57
2022-11-18T18:01:45.729Z,5.80
2022-11-18T18:04:21.338Z,2.90
2022-11-18T18:06:51.253Z,3.30
2022-11-18T18:09:21.783Z,3.33
2022-11-18T18:11:52.613Z,3.40
2022-11-18T18:14:20.047Z,3.83
2022-11-18T18:16:50.109Z,3.93
2022-11-18T18:19:22.591Z,3.60
2022-11-18T18:21:49.809Z,3.30
2022-11-18T18:24:19.744Z,2.80
2022-11-18T18:26:47.368Z,3.47
2022-11-18T18:29:14.927Z,3.30
2022-11-18T18:31:42.082Z,2.60
2022-11-18T18:34:09.398Z,2.80
2022-11-18T18:36:36.463Z,3.37
2022-11-18T18:39:04.508Z,3.83
2022-11-18T18:41:32.569Z,2.67
2022-11-18T18:44:00.654Z,2.20
2022-11-18T18:46:28.953Z,2.60
2022-11-18T18:48:56.502Z,3.03
2022-11-18T18:51:24.810Z,2.90
2022-11-18T18:53:52.598Z,2.57
2022-11-18T18:56:20.096Z,2.50
2022-11-18T18:58:47.416Z,2.17
2022-11-18T19:01:17.462Z,2.30
2022-11-18T19:03:45.041Z,2.00
2022-11-18T19:06:49.077Z,2.30
2022-11-18T19:09:18.440Z,2.67
2022-11-18T19:12:05.230Z,3.00
2022-11-18T19:14:35.204Z,2.33
2022-11-18T19:17:09.580Z,2.60
2022-11-18T19:19:59.142Z,2.90
2022-11-18T19:22:30.457Z,2.50
2022-11-18T19:24:58.444Z,2.73
2022-11-18T19:27:26.157Z,2.47
2022-11-18T19:29:53.612Z,2.20
2022-11-18T19:32:21.157Z,2.67
2022-11-18T19:34:48.949Z,2.87
2022-11-18T19:37:16.201Z,2.50
2022-11-18T19:39:44.010Z,2.17
2022-11-18T19:42:11.341Z,2.30
2022-11-18T19:44:39.694Z,1.90
2022-11-18T19:47:07.177Z,2.50
2022-11-18T19:49:34.535Z,2.03
2022-11-18T19:52:02.774Z,2.33
2022-11-18T19:54:30.351Z,2.33
2022-11-18T19:56:57.807Z,2.07
2022-11-18T19:59:25.396Z,2.33
2022-11-18T20:01:52.951Z,2.20
2022-11-18T20:04:20.461Z,2.13
2022-11-18T20:06:47.751Z,2.53
2022-11-18T20:09:15.362Z,2.40
2022-11-18T20:11:44.901Z,2.30
2022-11-18T20:14:12.861Z,1.90
2022-11-18T20:16:40.776Z,1.77
2022-11-18T20:19:13.411Z,2.13
2022-11-18T20:21:43.378Z,2.00
2022-11-18T20:24:16.093Z,1.87
2022-11-18T20:26:44.234Z,6.53
2022-11-18T20:29:15.121Z,2.93
2022-11-18T20:31:42.574Z,17.87
2022-11-18T20:34:14.485Z,7.50
2022-11-18T20:36:42.562Z,2.63
2022-11-18T20:39:16.083Z,2.63
2022-11-18T20:42:04.394Z,2.37
2022-11-18T20:44:31.737Z,5.83
2022-11-18T20:46:58.884Z,3.77
2022-11-18T20:49:25.976Z,3.50
2022-11-18T20:51:53.358Z,3.37
2022-11-18T20:54:20.701Z,3.47
2022-11-18T20:56:47.797Z,3.57
2022-11-18T20:59:14.938Z,4.03
2022-11-18T21:01:42.219Z,2.77
2022-11-18T21:04:12.039Z,2.43
2022-11-18T21:06:39.174Z,2.43
2022-11-18T21:09:07.836Z,2.03
2022-11-18T21:11:36.316Z,1.70
2022-11-18T21:14:24.408Z,2.77
2022-11-18T21:17:02.092Z,2.00
2022-11-18T21:19:30.057Z,2.07
2022-11-18T21:21:57.449Z,1.77
2022-11-18T21:24:32.327Z,2.00
2022-11-18T21:27:01.785Z,1.90
2022-11-18T21:29:31.873Z,2.17
2022-11-18T21:32:02.560Z,3.10
2022-11-18T21:34:29.897Z,2.90
2022-11-18T21:36:57.280Z,2.50
2022-11-18T21:39:25.232Z,2.43
2022-11-18T21:41:56.674Z,2.60
2022-11-18T21:44:27.967Z,2.90
2022-11-18T21:46:55.739Z,2.43
2022-11-18T21:49:23.507Z,2.70
2022-11-18T21:51:51.079Z,2.60
2022-11-18T21:54:18.533Z,2.37
2022-11-18T21:56:46.133Z,2.50
2022-11-18T21:59:13.307Z,2.50
2022-11-18T22:01:40.489Z,2.47
2022-11-18T22:04:07.633Z,2.67
2022-11-18T22:06:35.264Z,2.50
2022-11-18T22:09:04.690Z,2.50
2022-11-18T22:11:32.397Z,2.80
2022-11-18T22:13:59.625Z,2.73
2022-11-18T22:16:27.530Z,11.33
2022-11-18T22:19:02.557Z,3.97
2022-11-18T22:21:33.960Z,4.73
2022-11-18T22:24:01.421Z,4.67
2022-11-18T22:26:29.292Z,4.10
2022-11-18T22:28:58.329Z,3.53
2022-11-18T22:31:28.006Z,3.00
2022-11-18T22:33:56.744Z,3.37
2022-11-18T22:36:26.824Z,3.00
2022-11-18T22:38:55.390Z,3.10
2022-11-18T22:41:46.706Z,2.70
2022-11-18T22:44:16.643Z,2.90
2022-11-18T22:46:45.600Z,3.00
2022-11-18T22:49:13.807Z,2.43
2022-11-18T22:51:41.221Z,2.90
2022-11-18T22:54:37.107Z,2.50
2022-11-18T22:56:57.344Z,2.47
2022-11-18T22:59:25.620Z,2.13
2022-11-18T23:01:53.688Z,2.60
2022-11-18T23:04:21.192Z,2.37
2022-11-18T23:06:51.526Z,2.10
2022-11-18T23:09:19.393Z,2.10
2022-11-18T23:12:05.199Z,2.70
2022-11-18T23:14:32.650Z,5.30
2022-11-18T23:17:00.201Z,2.43
2022-11-18T23:19:30.026Z,3.00
2022-11-18T23:21:57.568Z,3.20
2022-11-18T23:24:25.413Z,2.70
2022-11-18T23:26:53.107Z,2.77
2022-11-18T23:29:21.142Z,3.00
2022-11-18T23:31:48.618Z,3.00
2022-11-18T23:34:17.201Z,3.53
2022-11-18T23:36:44.601Z,2.97
2022-11-18T23:39:13.042Z,3.00
2022-11-18T23:41:40.279Z,3.67
2022-11-18T23:44:07.960Z,3.30
2022-11-18T23:46:35.342Z,2.57
2022-11-18T23:49:02.806Z,3.27
2022-11-18T23:51:30.476Z,3.67
2022-11-18T23:53:58.100Z,2.93
2022-11-18T23:56:27.204Z,3.17
2022-11-18T23:58:56.429Z,3.00
